LOP weather

Lopez Airstrip
Mexicali, Baja California, Mexico

Public forecast

Using degrees Celsius for public forecast. Weather courtesy of forecast.io.

Closest aviation weather report (METAR) to Lopez Airstrip

Closest report is General Rodolfo Sánchez Taboada International Airport, 16.5 nm (30.5 km) NW. Retrieved 2020/02/23 13:59 UTC (37 minutes ago):

MMML 231359Z RTD 27009KT 10SM SKC 14/06 A3014 RMK ISOL CI RTS

Closest aviation forecast (TAF) to Lopez Airstrip

Forecast is more than 6 hours old.

Closest forecast is General Rodolfo Sánchez Taboada International Airport, 16.5 nm (30.5 km) NW. Retrieved 2020/02/23 06:06 UTC (8 hours ago):

TAF MMML 230358Z 2306/2406 28008KT P6SM BKN040 FM231800 32015KT P6SM BKN040 BKN250 FM240500 30006KT P6SM SCT030